Terminal Aerodrome Forecast
Issued by NWS Rapid City, SD

Current Version | Previous Version | Text Only | Print | Product List | Glossary On
Versions: 1 2 3 4 5 6 7 8 9 10 11 12 13 14 15
486
FTUS43 KUNR 280520
TAFRAP
TAF
KRAP 280520Z 2806/2906 20010KT P6SM BKN150
      TEMPO 2808/2810 -TSRA BKN080CB
     FM281900 14008KT P6SM VCTS BKN060CB=

USA.gov is the U.S. government's official web portal to all federal, state and local government web resources and services.